»·PEaware :: N210AR KSMX-KBFL

N210AR :: KSMX-KBFL

FLIGHT INFORMATION

Flight Status: Arrived
Operator: Privately registered:
United States
More flights under this callsign
Pilot: Max S. (16657)
Aircraft: CESSNA 172 SKYHAWK
(C172)
More flights by this aircraft type
Origin: KSMX Santa Maria Pub/Capt Hancock
United States
Destination: KBFL Meadows
United States
More flights between these airports :: More routes between these airports
Route: KSMX FLW KBFL
File this flight plan on PilotEdge
Remarks:
Altitude:
(Current/Filed)
5,500ft
Speed:
(Current/Filed)
100kts
Departed: 10-Oct-17 08:42 AM
Arrived: 10-Oct-17 09:53 AM
Distance/Time
Traveled:
76nm/1:11
Distance/Time
To Go:
Arrived

Flight Plot

Page will automatically refresh every two minutes.


Map Options




Map Legend


Flown Route
Filed Route
Departure Airport
Arrival Airport
Navaid (VOR, NDB)
Fix

Horizontal Profiles

Position Reports

Time Latitude Longitude Heading Altitude Ground
Speed
10-Oct-17 08:33 34.900570 -120.451310 228 264ft 0kts
10-Oct-17 08:34 34.900570 -120.451310 228 264ft 0kts
10-Oct-17 08:35 34.900570 -120.451310 228 264ft 0kts
10-Oct-17 08:36 34.900570 -120.451310 228 264ft 0kts
10-Oct-17 08:37 34.900570 -120.451310 228 264ft 0kts
10-Oct-17 08:38 34.900570 -120.451310 228 264ft 0kts
10-Oct-17 08:39 34.900570 -120.451310 228 264ft 0kts
10-Oct-17 08:40 34.900570 -120.451310 228 264ft 0kts
10-Oct-17 08:41 34.899997 -120.451141 179 264ft 14kts
10-Oct-17 08:42 34.897190 -120.448541 131 264ft 27kts
10-Oct-17 08:43 34.893798 -120.445370 167 264ft 0kts
10-Oct-17 08:44 34.893798 -120.445370 167 264ft 0kts
10-Oct-17 08:45 34.893768 -120.445363 169 264ft 4kts
10-Oct-17 08:46 34.899046 -120.453240 315 577ft 73kts
10-Oct-17 08:47 34.909366 -120.463884 8 1365ft 77kts
10-Oct-17 08:48 34.920621 -120.453103 45 2148ft 73kts
10-Oct-17 08:49 34.925448 -120.438778 92 2858ft 71kts
10-Oct-17 08:50 34.927887 -120.424983 84 3579ft 62kts
10-Oct-17 08:51 34.931879 -120.409352 74 4228ft 72kts
10-Oct-17 08:52 34.937474 -120.392704 78 4927ft 73kts
10-Oct-17 08:53 34.943049 -120.375426 75 5572ft 82kts
10-Oct-17 08:54 34.951499 -120.348318 74 5530ft 124kts
10-Oct-17 08:55 34.960715 -120.318349 74 5516ft 116kts
10-Oct-17 08:56 34.969230 -120.290272 75 5520ft 111kts
10-Oct-17 08:57 34.977571 -120.262249 75 5521ft 110kts
10-Oct-17 08:58 34.985819 -120.234220 75 5522ft 110kts
10-Oct-17 08:59 34.993957 -120.206247 76 5522ft 108kts
10-Oct-17 09:00 35.001970 -120.178539 75 5524ft 107kts
10-Oct-17 09:01 35.009941 -120.151064 75 5524ft 105kts
10-Oct-17 09:02 35.017761 -120.123978 75 5525ft 104kts
10-Oct-17 09:03 35.025671 -120.096474 74 5528ft 109kts
10-Oct-17 09:04 35.033799 -120.068340 73 5527ft 110kts
10-Oct-17 09:05 35.041787 -120.040059 70 5527ft 112kts
10-Oct-17 09:06 35.050314 -120.010785 70 5502ft 115kts
10-Oct-17 09:07 35.057900 -119.981531 72 5502ft 115kts
10-Oct-17 09:08 35.065935 -119.952129 67 5505ft 118kts
10-Oct-17 09:09 35.075210 -119.921884 66 5504ft 121kts
10-Oct-17 09:10 35.085528 -119.889352 66 5503ft 121kts
10-Oct-17 09:11 35.096182 -119.858847 60 5503ft 121kts
10-Oct-17 09:12 35.105665 -119.836366 60 5504ft 121kts
10-Oct-17 09:13 35.117643 -119.808148 60 5504ft 121kts
10-Oct-17 09:14 35.130175 -119.778692 60 5505ft 121kts
10-Oct-17 09:15 35.142260 -119.750276 60 5505ft 122kts
10-Oct-17 09:16 35.154011 -119.722610 60 5515ft 121kts
10-Oct-17 09:17 35.164112 -119.698816 60 5515ft 121kts
10-Oct-17 09:18 35.174126 -119.675227 60 5515ft 121kts
10-Oct-17 09:19 35.183918 -119.652151 59 5515ft 121kts
10-Oct-17 09:20 35.193443 -119.629692 59 5515ft 120kts
10-Oct-17 09:21 35.202853 -119.608047 64 5513ft 119kts
10-Oct-17 09:22 35.211936 -119.586329 65 5513ft 118kts
10-Oct-17 09:23 35.221100 -119.564494 65 5513ft 117kts
10-Oct-17 09:24 35.230300 -119.542684 65 5513ft 117kts
10-Oct-17 09:25 35.239459 -119.521002 65 5513ft 117kts
10-Oct-17 09:26 35.248593 -119.499355 65 5513ft 117kts
10-Oct-17 09:27 35.257888 -119.477328 65 5513ft 117kts
10-Oct-17 09:28 35.267147 -119.455378 65 5513ft 117kts
10-Oct-17 09:29 35.277120 -119.431721 65 5513ft 117kts
10-Oct-17 09:30 35.287315 -119.407520 65 5513ft 117kts
10-Oct-17 09:31 35.297606 -119.383072 65 5513ft 117kts
10-Oct-17 09:32 35.307981 -119.358409 65 5513ft 117kts
10-Oct-17 09:33 35.317599 -119.335526 66 5514ft 117kts
10-Oct-17 09:34 35.326887 -119.313416 66 5514ft 118kts
10-Oct-17 09:35 35.336178 -119.291282 66 5514ft 118kts
10-Oct-17 09:36 35.345280 -119.269587 66 5514ft 118kts
10-Oct-17 09:37 35.354254 -119.248182 66 5514ft 118kts
10-Oct-17 09:38 35.363227 -119.226765 66 5514ft 117kts
10-Oct-17 09:39 35.371595 -119.206805 67 5496ft 97kts
10-Oct-17 09:40 35.377363 -119.191397 72 5028ft 94kts
10-Oct-17 09:41 35.383281 -119.173179 73 4272ft 90kts
10-Oct-17 09:42 35.385840 -119.156649 83 3477ft 111kts
10-Oct-17 09:43 35.385612 -119.136774 100 2451ft 122kts
10-Oct-17 09:44 35.379593 -119.119398 130 1903ft 98kts
10-Oct-17 09:45 35.370595 -119.109033 136 1632ft 86kts
10-Oct-17 09:46 35.362799 -119.099650 132 1534ft 68kts
10-Oct-17 09:47 35.367078 -119.091126 40 1374ft 77kts
10-Oct-17 09:48 35.375082 -119.083610 40 1504ft 65kts
10-Oct-17 09:49 35.381391 -119.076592 50 1560ft 56kts
10-Oct-17 09:50 35.386884 -119.069438 49 1544ft 60kts
10-Oct-17 09:51 35.393657 -119.060571 48 1378ft 84kts
10-Oct-17 09:52 35.402194 -119.049271 51 1165ft 88kts
10-Oct-17 09:53 35.409571 -119.040722 353 936ft 73kts
10-Oct-17 09:54 35.418378 -119.039118 331 731ft 60kts
10-Oct-17 09:55 35.424948 -119.045801 321 682ft 59kts
10-Oct-17 09:56 35.431093 -119.053073 318 585ft 61kts
10-Oct-17 09:58 35.436135 -119.057978 42 509ft 18kts
10-Oct-17 09:59 35.436314 -119.057679 64 509ft 0kts
10-Oct-17 10:00 35.434754 -119.055084 137 509ft 40kts
10-Oct-17 10:01 35.431431 -119.050091 46 509ft 19kts
10-Oct-17 10:02 35.431464 -119.048531 190 509ft 0kts

Navigation Log

Ident Type
1. KSMX Airport
2. FLW Navaid
3. KBFL Airport